Kirishima Maru No.5 — JD2506 — position and weather

sailwx.info

Track history (hours):
 
Tides and Currents Weather Stations Pressure Air Temp Water Temp Dewpoint Dewpoint Depression Visibility Wind Speed Wind Dir Waves Ship Positions

Kirishima Maru No.5

Last reported at 2015-Mar-31 16:28 UTC. Time now 2015-Mar-31 20:51 UTC.
Position N 35°00' E 140°18'.

Length 105 m; draft 5.4 m.

Type: Tanker. MMSI: 431000338.

Date/timePositionNaut miles runAvg speedWind from/ knotsBaromVisibWave heightAir tempDewpointWater temp
2015-Mar-31 16:28N 35°00' E 140°18'27012.9
2015-Mar-30 19:32N 34°00' E 134°59'1414.7
2015-Mar-30 18:34N 34°14' E 134°58'1514.5
2015-Mar-30 17:33N 34°29' E 135°02'9 8.6
2015-Mar-30 16:33N 34°35' E 134°54'6 0.1
2015-Mar-28 23:33N 34°37' E 135°01'1211.7
2015-Mar-28 22:33N 34°25' E 135°03'1413.9
2015-Mar-28 21:33N 34°12' E 134°59'23211.0
2015-Mar-28 00:30N 34°43' E 139°39'1713.2
2015-Mar-27 23:15N 34°51' E 139°56'912.1
2015-Mar-27 22:33N 34°55' E 140°06'1212.4
2015-Mar-27 21:33N 35°01' E 140°19'1211.3
2015-Mar-27 20:31N 35°09' E 140°29'1512.6
2015-Mar-27 19:21N 35°21' E 140°40'1013.2
2015-Mar-27 18:33N 35°29' E 140°48'1413.7
2015-Mar-27 17:33N 35°40' E 140°57'1514.2
2015-Mar-27 16:31N 35°55' E 140°58'1614.4
2015-Mar-27 15:24N 36°11' E 141°01'63 1.5
2015-Mar-25 22:28N 35°12' E 140°32'1614.3
2015-Mar-25 21:20N 35°01' E 140°18'1214.9
2015-Mar-25 20:33N 34°55' E 140°06'1715.0
2015-Mar-25 19:24N 34°47' E 139°47'24212.2
2015-Mar-24 23:33N 34°06' E 134°58'1714.9
2015-Mar-24 22:23N 34°23' E 135°00'1214.6
2015-Mar-24 21:33N 34°35' E 135°03'8 0.2
2015-Mar-23 05:29N 34°36' E 134°54'910.3
2015-Mar-23 04:33N 34°35' E 135°05'1513.4
2015-Mar-23 03:27N 34°20' E 135°01'1213.1
2015-Mar-23 02:32N 34°09' E 134°59'  
Track history (hours):
 
Tides and Currents Weather Stations Pressure Air Temp Water Temp Dewpoint Dewpoint Depression Visibility Wind Speed Wind Dir Waves Ship Positions

Kirishima Maru No.5

Last reported at 2015-Mar-31 16:28 UTC. Time now 2015-Mar-31 20:51 UTC.
Position N 35°00' E 140°18'.

Length 105 m; draft 5.4 m.

Type: Tanker. MMSI: 431000338.

Date/timePositionNaut miles runAvg speedWind from/ knotsBaromVisibWave heightAir tempDewpointWater temp
2015-Mar-31 16:28N 35°00' E 140°18'27012.9
2015-Mar-30 19:32N 34°00' E 134°59'1414.7
2015-Mar-30 18:34N 34°14' E 134°58'1514.5
2015-Mar-30 17:33N 34°29' E 135°02'9 8.6
2015-Mar-30 16:33N 34°35' E 134°54'6 0.1
2015-Mar-28 23:33N 34°37' E 135°01'1211.7
2015-Mar-28 22:33N 34°25' E 135°03'1413.9
2015-Mar-28 21:33N 34°12' E 134°59'23211.0
2015-Mar-28 00:30N 34°43' E 139°39'1713.2
2015-Mar-27 23:15N 34°51' E 139°56'912.1
2015-Mar-27 22:33N 34°55' E 140°06'1212.4
2015-Mar-27 21:33N 35°01' E 140°19'1211.3
2015-Mar-27 20:31N 35°09' E 140°29'1512.6
2015-Mar-27 19:21N 35°21' E 140°40'1013.2
2015-Mar-27 18:33N 35°29' E 140°48'1413.7
2015-Mar-27 17:33N 35°40' E 140°57'1514.2
2015-Mar-27 16:31N 35°55' E 140°58'1614.4
2015-Mar-27 15:24N 36°11' E 141°01'63 1.5
2015-Mar-25 22:28N 35°12' E 140°32'1614.3
2015-Mar-25 21:20N 35°01' E 140°18'1214.9
2015-Mar-25 20:33N 34°55' E 140°06'1715.0
2015-Mar-25 19:24N 34°47' E 139°47'24212.2
2015-Mar-24 23:33N 34°06' E 134°58'1714.9
2015-Mar-24 22:23N 34°23' E 135°00'1214.6
2015-Mar-24 21:33N 34°35' E 135°03'8 0.2
2015-Mar-23 05:29N 34°36' E 134°54'910.3
2015-Mar-23 04:33N 34°35' E 135°05'1513.4
2015-Mar-23 03:27N 34°20' E 135°01'1213.1
2015-Mar-23 02:32N 34°09' E 134°59'  

Dump ship's entire track history